createdAt,value
2019-02-03T00:00:34.858Z,19.99
2019-02-03T00:03:01.310Z,20.00
2019-02-03T00:05:27.641Z,20.02
2019-02-03T00:07:53.944Z,20.03
2019-02-03T00:10:20.298Z,19.99
2019-02-03T00:12:46.650Z,20.03
2019-02-03T00:15:13.037Z,19.97
2019-02-03T00:17:39.370Z,20.01
2019-02-03T00:20:05.770Z,20.00
2019-02-03T00:22:32.118Z,20.02
2019-02-03T00:24:59.764Z,19.99
2019-02-03T00:27:26.113Z,19.98
2019-02-03T00:29:52.511Z,19.98
2019-02-03T00:32:18.881Z,20.00
2019-02-03T00:34:45.274Z,20.00
2019-02-03T00:37:15.747Z,19.98
2019-02-03T00:39:38.027Z,19.97
2019-02-03T00:42:04.369Z,19.96
2019-02-03T00:44:30.717Z,19.98
2019-02-03T00:46:57.062Z,19.99
2019-02-03T00:49:23.399Z,19.96
2019-02-03T00:51:49.734Z,19.99
2019-02-03T00:54:16.303Z,19.97
2019-02-03T00:56:42.653Z,19.98
2019-02-03T00:59:09.090Z,19.97
2019-02-03T01:01:35.406Z,19.97
2019-02-03T01:04:01.744Z,19.95
2019-02-03T01:06:28.115Z,19.95
2019-02-03T01:08:54.456Z,19.97
2019-02-03T01:11:20.851Z,19.97
2019-02-03T01:13:47.237Z,19.94
2019-02-03T01:16:13.581Z,19.96
2019-02-03T01:18:39.931Z,19.92
2019-02-03T01:21:06.275Z,19.94
2019-02-03T01:23:32.671Z,19.91
2019-02-03T01:25:58.974Z,19.90
2019-02-03T01:28:25.364Z,19.96
2019-02-03T01:30:51.749Z,19.94
2019-02-03T01:33:18.088Z,19.94
2019-02-03T01:35:44.522Z,19.94
2019-02-03T01:38:10.885Z,19.90
2019-02-03T01:40:37.278Z,19.91
2019-02-03T01:43:03.727Z,19.92
2019-02-03T01:45:30.086Z,19.90
2019-02-03T01:47:56.462Z,19.90
2019-02-03T01:50:22.923Z,19.92
2019-02-03T01:52:50.524Z,19.87
2019-02-03T01:55:15.665Z,19.89
2019-02-03T01:57:42.120Z,19.89
2019-02-03T02:00:08.616Z,19.90
2019-02-03T02:02:34.912Z,19.90
2019-02-03T02:05:01.286Z,19.89
2019-02-03T02:07:27.642Z,19.87
2019-02-03T02:09:53.969Z,19.89
2019-02-03T02:12:20.317Z,19.87
2019-02-03T02:14:46.706Z,19.88
2019-02-03T02:17:13.043Z,19.90
2019-02-03T02:19:39.497Z,19.90
2019-02-03T02:22:05.864Z,19.88
2019-02-03T02:24:32.245Z,19.87
2019-02-03T02:26:58.625Z,19.89
2019-02-03T02:29:24.969Z,19.88
2019-02-03T02:31:51.377Z,19.89
2019-02-03T02:34:17.715Z,19.91
2019-02-03T02:36:44.117Z,19.86
2019-02-03T02:39:10.514Z,19.86
2019-02-03T02:41:36.830Z,19.85
2019-02-03T02:44:03.189Z,19.86
2019-02-03T02:46:29.538Z,19.86
2019-02-03T02:48:55.997Z,19.88
2019-02-03T02:51:22.437Z,19.87
2019-02-03T02:53:48.638Z,19.88
2019-02-03T02:56:14.987Z,19.88
2019-02-03T02:58:44.392Z,19.84
2019-02-03T03:01:10.821Z,19.89
2019-02-03T03:03:37.173Z,19.85
2019-02-03T03:06:03.527Z,19.88
2019-02-03T03:08:29.872Z,19.82
2019-02-03T03:10:56.298Z,19.90
2019-02-03T03:13:22.732Z,19.86
2019-02-03T03:15:49.095Z,19.84
2019-02-03T03:18:15.450Z,19.84
2019-02-03T03:20:41.799Z,19.86
2019-02-03T03:23:08.154Z,19.86
2019-02-03T03:25:34.553Z,19.88
2019-02-03T03:28:00.940Z,19.85
2019-02-03T03:30:27.316Z,19.86
2019-02-03T03:32:53.699Z,19.84
2019-02-03T03:35:20.012Z,19.81
2019-02-03T03:37:46.354Z,19.87
2019-02-03T03:40:12.708Z,19.85
2019-02-03T03:42:39.112Z,19.84
2019-02-03T03:45:05.569Z,19.84
2019-02-03T03:47:31.895Z,19.86
2019-02-03T03:49:58.233Z,19.84
2019-02-03T03:52:24.579Z,19.81
2019-02-03T03:54:50.940Z,19.86
2019-02-03T03:57:17.356Z,19.85
2019-02-03T03:59:43.739Z,19.83
2019-02-03T04:02:10.087Z,19.84
2019-02-03T04:04:36.440Z,19.85
2019-02-03T04:07:02.935Z,19.85
2019-02-03T04:09:29.315Z,19.82
2019-02-03T04:11:55.635Z,19.82
2019-02-03T04:14:21.981Z,19.82
2019-02-03T04:16:48.378Z,19.81
2019-02-03T04:19:15.753Z,19.86
2019-02-03T04:21:41.161Z,19.82
2019-02-03T04:24:09.703Z,19.84
2019-02-03T04:26:36.051Z,19.77
2019-02-03T04:29:02.398Z,19.81
2019-02-03T04:31:28.787Z,19.81
2019-02-03T04:33:55.081Z,19.80
2019-02-03T04:36:21.452Z,19.82
2019-02-03T04:38:57.553Z,19.83
2019-02-03T04:41:14.140Z,19.79
2019-02-03T04:43:40.483Z,19.85
2019-02-03T04:46:06.843Z,19.81
2019-02-03T04:48:33.179Z,19.80
2019-02-03T04:50:59.540Z,19.80
2019-02-03T04:53:25.868Z,19.79
2019-02-03T04:55:52.245Z,19.83
2019-02-03T04:58:18.604Z,19.82
2019-02-03T05:00:44.966Z,19.82
2019-02-03T05:03:11.316Z,19.80
2019-02-03T05:05:37.697Z,19.82
2019-02-03T05:08:04.048Z,19.82
2019-02-03T05:10:30.517Z,19.82
2019-02-03T05:12:56.879Z,19.79
2019-02-03T05:15:23.231Z,19.82
2019-02-03T05:17:49.773Z,19.79
2019-02-03T05:20:16.116Z,19.77
2019-02-03T05:22:42.427Z,19.81
2019-02-03T05:25:08.780Z,19.80
2019-02-03T05:27:35.143Z,19.83
2019-02-03T05:30:01.546Z,19.82
2019-02-03T05:32:27.906Z,19.79
2019-02-03T05:34:54.261Z,19.81
2019-02-03T05:37:20.666Z,19.83
2019-02-03T05:39:47.042Z,19.79
2019-02-03T05:42:13.360Z,19.79
2019-02-03T05:44:39.691Z,19.80
2019-02-03T05:47:06.023Z,19.79
2019-02-03T05:49:32.403Z,19.80
2019-02-03T05:51:58.730Z,19.80
2019-02-03T05:54:25.096Z,19.79
2019-02-03T05:56:51.414Z,19.83
2019-02-03T05:59:17.732Z,19.79
2019-02-03T06:01:44.169Z,19.81
2019-02-03T06:04:10.495Z,19.80
2019-02-03T06:06:36.846Z,19.80
2019-02-03T06:09:03.216Z,19.80
2019-02-03T06:11:29.553Z,19.77
2019-02-03T06:13:55.929Z,19.79
2019-02-03T06:16:22.249Z,19.84
2019-02-03T06:18:51.081Z,19.82
2019-02-03T06:21:17.421Z,19.81
2019-02-03T06:23:43.805Z,19.81
2019-02-03T06:26:10.236Z,19.82
2019-02-03T06:28:36.575Z,19.82
2019-02-03T06:31:02.913Z,19.81
2019-02-03T06:33:29.277Z,19.79
2019-02-03T06:35:55.638Z,19.81
2019-02-03T06:38:21.969Z,19.82
2019-02-03T06:40:48.304Z,19.83
2019-02-03T06:43:14.649Z,19.83
2019-02-03T06:45:41.084Z,19.83
2019-02-03T06:48:07.420Z,19.83
2019-02-03T06:50:33.751Z,19.84
2019-02-03T06:53:00.074Z,19.83
2019-02-03T06:55:26.443Z,19.81
2019-02-03T06:57:52.787Z,19.83
2019-02-03T07:00:19.117Z,19.86
2019-02-03T07:02:48.188Z,19.85
2019-02-03T07:05:14.515Z,19.85
2019-02-03T07:07:40.860Z,19.86
2019-02-03T07:10:07.243Z,19.87
2019-02-03T07:12:33.643Z,19.84
2019-02-03T07:14:59.975Z,19.83
2019-02-03T07:17:26.412Z,19.86
2019-02-03T07:19:52.745Z,19.87
2019-02-03T07:22:19.090Z,19.88
2019-02-03T07:24:45.435Z,19.88
2019-02-03T07:27:12.120Z,19.90
2019-02-03T07:29:38.132Z,19.90
2019-02-03T07:32:04.463Z,19.89
2019-02-03T07:34:30.793Z,19.88
2019-02-03T07:36:57.191Z,19.89
2019-02-03T07:39:23.513Z,19.94
2019-02-03T07:41:49.890Z,19.91
2019-02-03T07:44:16.221Z,19.92
2019-02-03T07:46:42.594Z,19.91
2019-02-03T07:49:08.922Z,19.92
2019-02-03T07:51:35.319Z,19.92
2019-02-03T07:54:08.546Z,19.94
2019-02-03T07:56:28.025Z,19.98
2019-02-03T07:58:54.355Z,19.94
2019-02-03T08:01:20.693Z,19.98
2019-02-03T08:03:47.154Z,19.95
2019-02-03T08:06:13.494Z,19.96
2019-02-03T08:08:39.894Z,19.98
2019-02-03T08:11:06.244Z,19.99
2019-02-03T08:13:32.678Z,19.97
2019-02-03T08:15:59.003Z,20.02
2019-02-03T08:18:25.337Z,20.02
2019-02-03T08:20:51.660Z,20.01
2019-02-03T08:23:17.988Z,20.05
2019-02-03T08:25:44.320Z,20.01
2019-02-03T08:28:10.762Z,20.01
2019-02-03T08:30:37.130Z,20.01
2019-02-03T08:33:03.477Z,20.02
2019-02-03T08:35:29.807Z,20.06
2019-02-03T08:37:56.195Z,20.09
2019-02-03T08:40:22.521Z,20.06
2019-02-03T08:42:48.946Z,20.09
2019-02-03T08:45:15.275Z,20.11
2019-02-03T08:47:41.606Z,20.11
2019-02-03T08:50:07.937Z,20.09
2019-02-03T08:52:34.392Z,20.10
2019-02-03T08:55:00.710Z,20.12
2019-02-03T08:57:27.063Z,20.14
2019-02-03T08:59:53.404Z,20.13
2019-02-03T09:02:19.741Z,20.16
2019-02-03T09:04:46.120Z,20.20
2019-02-03T09:07:12.413Z,20.16
2019-02-03T09:09:38.730Z,20.15
2019-02-03T09:12:05.070Z,20.19
2019-02-03T09:14:31.451Z,20.19
2019-02-03T09:16:57.823Z,20.20
2019-02-03T09:19:24.106Z,20.22
2019-02-03T09:21:50.538Z,20.20
2019-02-03T09:24:16.950Z,20.24
2019-02-03T09:26:43.304Z,20.22
2019-02-03T09:29:09.660Z,20.24
2019-02-03T09:31:36.104Z,20.26
2019-02-03T09:34:02.315Z,20.25
2019-02-03T09:36:28.716Z,20.27
2019-02-03T09:38:55.047Z,20.25
2019-02-03T09:41:21.377Z,20.27
2019-02-03T09:43:47.718Z,20.26
2019-02-03T09:46:14.079Z,20.25
2019-02-03T09:48:40.414Z,20.28
2019-02-03T09:51:06.746Z,20.30
2019-02-03T09:53:33.093Z,20.28
2019-02-03T09:55:59.447Z,20.31
2019-02-03T09:58:25.824Z,20.30
2019-02-03T10:00:52.198Z,20.31
2019-02-03T10:03:18.526Z,20.31
2019-02-03T10:05:44.872Z,20.29
2019-02-03T10:08:11.202Z,20.32
2019-02-03T10:10:37.571Z,20.33
2019-02-03T10:13:03.886Z,20.34
2019-02-03T10:15:30.242Z,20.34
2019-02-03T10:17:56.571Z,20.34
2019-02-03T10:20:22.897Z,20.33
2019-02-03T10:22:49.232Z,20.35
2019-02-03T10:25:15.559Z,20.35
2019-02-03T10:27:44.702Z,20.36
2019-02-03T10:30:11.000Z,20.36
2019-02-03T10:32:37.336Z,20.40
2019-02-03T10:35:03.659Z,20.37
2019-02-03T10:37:29.994Z,20.39
2019-02-03T10:39:56.327Z,20.40
2019-02-03T10:42:22.654Z,20.40
2019-02-03T10:44:49.027Z,20.41
2019-02-03T10:47:15.367Z,20.45
2019-02-03T10:49:41.698Z,20.44
2019-02-03T10:52:08.027Z,20.44
2019-02-03T10:54:34.355Z,20.45
2019-02-03T10:57:00.694Z,20.45
2019-02-03T10:59:27.050Z,20.43
2019-02-03T11:01:53.380Z,20.45
2019-02-03T11:04:19.713Z,20.47
2019-02-03T11:06:46.091Z,20.48
2019-02-03T11:09:12.460Z,20.49
2019-02-03T11:11:38.796Z,20.50
2019-02-03T11:14:05.121Z,20.57
2019-02-03T11:16:31.440Z,20.54
2019-02-03T11:18:57.820Z,20.55
2019-02-03T11:21:24.175Z,20.53
2019-02-03T11:23:50.521Z,20.55
2019-02-03T11:26:16.856Z,20.57
2019-02-03T11:28:43.194Z,20.57
2019-02-03T11:31:09.553Z,20.60
2019-02-03T11:33:35.906Z,20.60
2019-02-03T11:36:02.279Z,20.63
2019-02-03T11:38:28.687Z,20.64
2019-02-03T11:40:55.093Z,20.68
2019-02-03T11:43:21.517Z,20.66
2019-02-03T11:45:47.847Z,20.69
2019-02-03T11:48:16.124Z,20.71
2019-02-03T11:50:41.741Z,20.72
2019-02-03T11:53:06.835Z,20.73
2019-02-03T11:55:33.176Z,20.74
2019-02-03T11:57:59.503Z,20.74
2019-02-03T12:00:27.787Z,20.75
2019-02-03T12:02:54.817Z,20.74
2019-02-03T12:05:25.848Z,20.78
2019-02-03T12:07:50.294Z,20.79
2019-02-03T12:10:18.835Z,20.78
2019-02-03T12:12:45.156Z,20.77
2019-02-03T12:15:11.626Z,20.79
2019-02-03T12:17:38.032Z,20.78
2019-02-03T12:20:06.330Z,20.85
2019-02-03T12:22:30.700Z,20.85
2019-02-03T12:24:59.279Z,20.84
2019-02-03T12:27:25.654Z,20.86
2019-02-03T12:29:51.946Z,20.86
2019-02-03T12:32:22.319Z,20.85
2019-02-03T12:34:44.632Z,20.86
2019-02-03T12:37:10.975Z,20.89
2019-02-03T12:39:39.284Z,20.90
2019-02-03T12:42:12.862Z,20.91
2019-02-03T12:44:33.982Z,20.92
2019-02-03T12:46:58.280Z,20.93
2019-02-03T12:49:24.668Z,20.94
2019-02-03T12:51:53.423Z,20.93
2019-02-03T12:54:22.766Z,20.95
2019-02-03T12:56:49.102Z,20.96
2019-02-03T12:59:15.462Z,20.99
2019-02-03T13:01:41.777Z,20.96
2019-02-03T13:04:10.557Z,20.98
2019-02-03T13:06:37.014Z,21.00
2019-02-03T13:09:07.475Z,21.00
2019-02-03T13:11:29.728Z,21.01
2019-02-03T13:13:57.797Z,21.01
2019-02-03T13:16:22.456Z,21.00
2019-02-03T13:18:50.418Z,21.00
2019-02-03T13:21:16.790Z,21.02
2019-02-03T13:23:46.796Z,21.06
2019-02-03T13:26:12.003Z,21.05
2019-02-03T13:28:39.340Z,21.03
2019-02-03T13:31:11.196Z,21.06
2019-02-03T13:33:36.271Z,21.07
2019-02-03T13:36:04.656Z,21.08
2019-02-03T13:38:29.024Z,21.02
2019-02-03T13:40:55.345Z,21.00
2019-02-03T13:43:24.193Z,21.04
2019-02-03T13:45:51.513Z,21.08
2019-02-03T13:48:16.915Z,21.06
2019-02-03T13:50:43.274Z,21.09
2019-02-03T13:53:11.619Z,21.13
2019-02-03T13:55:37.990Z,21.11
2019-02-03T13:58:04.367Z,21.09
2019-02-03T14:00:30.719Z,21.13
2019-02-03T14:02:59.052Z,21.14
2019-02-03T14:05:23.387Z,21.10
2019-02-03T14:07:49.731Z,21.17
2019-02-03T14:10:16.068Z,21.17
2019-02-03T14:12:50.221Z,21.19
2019-02-03T14:15:08.757Z,21.24
2019-02-03T14:17:37.850Z,21.19
2019-02-03T14:20:04.206Z,21.29
2019-02-03T14:22:36.204Z,21.32
2019-02-03T14:25:04.880Z,21.33
2019-02-03T14:27:33.740Z,21.34
2019-02-03T14:30:00.033Z,21.37
2019-02-03T14:32:32.426Z,21.31
2019-02-03T14:34:54.015Z,21.37
2019-02-03T14:37:20.357Z,21.37
2019-02-03T14:39:49.718Z,21.36
2019-02-03T14:42:13.739Z,21.44
2019-02-03T14:44:48.917Z,21.38
2019-02-03T14:47:14.007Z,21.35
2019-02-03T14:49:41.292Z,21.39
2019-02-03T14:52:10.059Z,21.42
2019-02-03T14:54:35.215Z,21.37
2019-02-03T14:57:01.543Z,21.38
2019-02-03T14:59:27.931Z,21.39
2019-02-03T15:01:56.714Z,21.40
2019-02-03T15:04:25.146Z,21.40
2019-02-03T15:06:49.499Z,21.42
2019-02-03T15:09:17.982Z,21.39
2019-02-03T15:11:42.403Z,21.37
2019-02-03T15:14:11.743Z,21.38
2019-02-03T15:16:38.094Z,21.42
2019-02-03T15:19:04.424Z,21.40
2019-02-03T15:21:31.781Z,21.40
2019-02-03T15:23:57.144Z,21.40
2019-02-03T15:26:23.478Z,21.39
2019-02-03T15:28:51.876Z,21.38
2019-02-03T15:31:16.232Z,21.38
2019-02-03T15:33:44.780Z,21.39
2019-02-03T15:36:13.103Z,21.39
2019-02-03T15:38:38.722Z,21.38
2019-02-03T15:41:05.140Z,21.38
2019-02-03T15:43:32.988Z,21.38
2019-02-03T15:45:59.317Z,21.37
2019-02-03T15:48:29.526Z,21.37
2019-02-03T15:50:54.769Z,21.38
2019-02-03T15:53:21.098Z,21.40
2019-02-03T15:55:47.451Z,21.38
2019-02-03T15:58:13.781Z,21.38
2019-02-03T16:00:45.266Z,21.37
2019-02-03T16:03:11.658Z,21.36
2019-02-03T16:05:38.207Z,21.35
2019-02-03T16:08:04.553Z,21.34
2019-02-03T16:10:30.882Z,21.36
2019-02-03T16:12:57.335Z,21.35
2019-02-03T16:15:23.671Z,21.35
2019-02-03T16:17:52.066Z,21.34
2019-02-03T16:20:18.398Z,21.33
2019-02-03T16:22:44.728Z,21.35
2019-02-03T16:25:11.076Z,21.34
2019-02-03T16:27:37.473Z,21.34
2019-02-03T16:30:03.797Z,21.28
2019-02-03T16:32:30.150Z,21.31
2019-02-03T16:35:00.333Z,21.33
2019-02-03T16:37:26.618Z,21.30
2019-02-03T16:39:52.971Z,21.27
2019-02-03T16:42:19.327Z,21.23
2019-02-03T16:44:45.795Z,21.21
2019-02-03T16:47:14.746Z,21.15
2019-02-03T16:49:38.505Z,21.10
2019-02-03T16:52:05.834Z,21.07
2019-02-03T16:54:31.193Z,21.02
2019-02-03T16:56:57.517Z,21.00
2019-02-03T16:59:26.699Z,20.96
2019-02-03T17:01:53.146Z,20.95
2019-02-03T17:04:23.083Z,20.91
2019-02-03T17:06:49.216Z,20.92
2019-02-03T17:09:14.753Z,20.89
2019-02-03T17:11:40.979Z,20.87
2019-02-03T17:14:07.325Z,20.83
2019-02-03T17:16:33.664Z,20.86
2019-02-03T17:19:00.071Z,20.80
2019-02-03T17:21:26.348Z,20.77
2019-02-03T17:23:52.682Z,20.80
2019-02-03T17:26:19.045Z,20.78
2019-02-03T17:28:46.572Z,20.77
2019-02-03T17:31:11.767Z,20.76
2019-02-03T17:33:38.106Z,20.75
2019-02-03T17:36:04.497Z,20.74
2019-02-03T17:38:30.844Z,20.75
2019-02-03T17:40:57.225Z,20.73
2019-02-03T17:43:26.333Z,20.72
2019-02-03T17:45:52.695Z,20.68
2019-02-03T17:48:19.024Z,20.70
2019-02-03T17:50:45.357Z,20.65
2019-02-03T17:53:11.716Z,20.64
2019-02-03T17:55:38.072Z,20.68
2019-02-03T17:58:04.401Z,20.62
2019-02-03T18:00:33.563Z,20.66
2019-02-03T18:02:59.893Z,20.62
2019-02-03T18:05:26.298Z,20.62
2019-02-03T18:07:52.631Z,20.61
2019-02-03T18:10:21.793Z,20.63
2019-02-03T18:12:48.130Z,20.60
2019-02-03T18:15:14.463Z,20.56
2019-02-03T18:17:40.862Z,20.58
2019-02-03T18:20:07.202Z,20.53
2019-02-03T18:22:33.551Z,20.55
2019-02-03T18:24:59.882Z,20.54
2019-02-03T18:27:29.321Z,20.57
2019-02-03T18:29:55.690Z,20.56
2019-02-03T18:32:22.098Z,20.51
2019-02-03T18:34:48.428Z,20.50
2019-02-03T18:37:14.788Z,20.49
2019-02-03T18:39:42.541Z,20.48
2019-02-03T18:42:07.530Z,20.49
2019-02-03T18:44:38.979Z,20.48
2019-02-03T18:47:02.530Z,20.48
2019-02-03T18:49:28.875Z,20.47
2019-02-03T18:51:56.953Z,20.47
2019-02-03T18:54:26.321Z,20.47
2019-02-03T18:56:50.689Z,20.40
2019-02-03T18:59:17.012Z,20.44
2019-02-03T19:01:44.649Z,20.44
2019-02-03T19:04:12.309Z,20.44
2019-02-03T19:06:38.665Z,20.44
2019-02-03T19:09:05.036Z,20.42
2019-02-03T19:11:31.427Z,20.41
2019-02-03T19:13:57.751Z,20.34
2019-02-03T19:16:24.145Z,20.35
2019-02-03T19:18:50.474Z,20.36
2019-02-03T19:21:16.844Z,20.37
2019-02-03T19:23:48.285Z,20.40
2019-02-03T19:26:12.780Z,20.36
2019-02-03T19:28:42.832Z,20.35
2019-02-03T19:31:09.089Z,20.33
2019-02-03T19:33:34.264Z,20.31
2019-02-03T19:36:00.602Z,20.34
2019-02-03T19:38:31.626Z,20.33
2019-02-03T19:40:53.326Z,20.32
2019-02-03T19:43:21.930Z,20.32
2019-02-03T19:45:52.057Z,20.30
2019-02-03T19:48:18.290Z,20.30
2019-02-03T19:50:43.423Z,20.26
2019-02-03T19:53:09.755Z,20.28
2019-02-03T19:55:36.131Z,20.27
2019-02-03T19:58:06.751Z,20.26
2019-02-03T20:00:33.378Z,20.27
2019-02-03T20:03:06.618Z,20.26
2019-02-03T20:05:28.487Z,20.25
2019-02-03T20:07:57.104Z,20.25
2019-02-03T20:10:27.496Z,20.22
2019-02-03T20:12:53.397Z,20.19
2019-02-03T20:15:18.505Z,20.20
2019-02-03T20:17:52.110Z,20.21
2019-02-03T20:20:18.448Z,20.19
2019-02-03T20:22:44.783Z,20.16
2019-02-03T20:25:15.093Z,20.16
2019-02-03T20:27:42.666Z,20.16
2019-02-03T20:30:09.049Z,20.17
2019-02-03T20:32:35.386Z,20.17
2019-02-03T20:35:07.985Z,20.14
2019-02-03T20:37:34.323Z,20.15
2019-02-03T20:40:02.385Z,20.13
2019-02-03T20:42:27.000Z,20.11
2019-02-03T20:44:53.306Z,20.12
2019-02-03T20:47:19.638Z,20.15
2019-02-03T20:49:45.985Z,20.10
2019-02-03T20:52:13.430Z,20.07
2019-02-03T20:54:38.695Z,20.10
2019-02-03T20:57:06.977Z,20.10
2019-02-03T20:59:33.306Z,20.07
2019-02-03T21:01:59.671Z,20.06
2019-02-03T21:04:26.038Z,20.11
2019-02-03T21:06:55.233Z,20.06
2019-02-03T21:09:25.437Z,20.05
2019-02-03T21:11:50.721Z,20.07
2019-02-03T21:14:18.013Z,20.05
2019-02-03T21:16:43.451Z,20.07
2019-02-03T21:19:11.768Z,20.02
2019-02-03T21:21:36.167Z,20.09
2019-02-03T21:24:02.508Z,20.04
2019-02-03T21:26:30.496Z,20.04
2019-02-03T21:28:55.197Z,20.05
2019-02-03T21:31:21.633Z,20.04
2019-02-03T21:33:47.904Z,20.04
2019-02-03T21:36:14.238Z,20.02
2019-02-03T21:38:42.824Z,19.99
2019-02-03T21:41:10.353Z,20.01
2019-02-03T21:43:37.198Z,19.99
2019-02-03T21:46:01.920Z,19.99
2019-02-03T21:48:33.009Z,20.01
2019-02-03T21:50:56.295Z,19.99
2019-02-03T21:53:22.656Z,19.98
2019-02-03T21:55:49.107Z,19.96
2019-02-03T21:58:15.440Z,19.98
2019-02-03T22:00:41.811Z,19.97
2019-02-03T22:03:11.490Z,19.96
2019-02-03T22:05:44.088Z,19.99
2019-02-03T22:08:16.378Z,19.96
2019-02-03T22:10:38.427Z,19.95
2019-02-03T22:13:04.759Z,19.97
2019-02-03T22:15:37.093Z,19.94
2019-02-03T22:18:03.446Z,19.91
2019-02-03T22:20:29.812Z,19.95
2019-02-03T22:22:59.102Z,19.92
2019-02-03T22:25:35.822Z,19.92
2019-02-03T22:27:51.756Z,19.92
2019-02-03T22:30:21.009Z,19.90
2019-02-03T22:32:46.156Z,19.89
2019-02-03T22:35:16.568Z,19.91
2019-02-03T22:37:41.301Z,19.89
2019-02-03T22:40:10.705Z,19.87
2019-02-03T22:42:35.750Z,19.89
2019-02-03T22:45:02.029Z,19.90
2019-02-03T22:47:28.394Z,19.90
2019-02-03T22:49:55.879Z,19.87
2019-02-03T22:52:22.329Z,19.88
2019-02-03T22:54:50.143Z,19.88
2019-02-03T22:57:16.475Z,19.86
2019-02-03T22:59:42.831Z,19.84
2019-02-03T23:02:12.184Z,19.88
2019-02-03T23:04:38.536Z,19.89
2019-02-03T23:07:04.887Z,19.85
2019-02-03T23:09:33.068Z,19.83
2019-02-03T23:11:57.528Z,19.84
2019-02-03T23:14:23.857Z,19.85
2019-02-03T23:16:50.274Z,19.83
2019-02-03T23:19:16.624Z,19.85
2019-02-03T23:21:44.985Z,19.85
2019-02-03T23:24:11.323Z,19.81
2019-02-03T23:26:35.698Z,19.80
2019-02-03T23:29:02.059Z,19.80
2019-02-03T23:31:28.417Z,19.81
2019-02-03T23:33:54.783Z,19.82
2019-02-03T23:36:21.151Z,19.83
2019-02-03T23:38:47.556Z,19.82
2019-02-03T23:41:13.965Z,19.79
2019-02-03T23:43:40.263Z,19.81
2019-02-03T23:46:06.654Z,19.80
2019-02-03T23:48:33.168Z,19.80
2019-02-03T23:50:59.497Z,19.79
2019-02-03T23:53:25.840Z,19.82
2019-02-03T23:55:52.273Z,19.77
2019-02-03T23:58:18.620Z,19.77
